createdAt,value
2019-06-27T00:00:38.907Z,73.57
2019-06-27T00:03:07.792Z,73.53
2019-06-27T00:05:36.626Z,73.18
2019-06-27T00:08:05.560Z,73.11
2019-06-27T00:10:34.632Z,73.01
2019-06-27T00:13:03.247Z,74.16
2019-06-27T00:15:33.132Z,73.48
2019-06-27T00:18:02.001Z,73.72
2019-06-27T00:20:30.861Z,73.78
2019-06-27T00:22:59.709Z,72.60
2019-06-27T00:25:28.592Z,72.84
2019-06-27T00:27:57.436Z,72.21
2019-06-27T00:30:27.243Z,73.13
2019-06-27T00:32:56.091Z,73.03
2019-06-27T00:35:24.948Z,73.07
2019-06-27T00:37:53.786Z,73.25
2019-06-27T00:40:22.662Z,73.14
2019-06-27T00:42:51.841Z,72.96
2019-06-27T00:45:21.746Z,73.11
2019-06-27T00:47:50.600Z,72.32
2019-06-27T00:50:19.478Z,72.57
2019-06-27T00:52:48.373Z,72.15
2019-06-27T00:55:17.223Z,72.93
2019-06-27T00:57:46.071Z,72.65
2019-06-27T01:00:14.984Z,73.08
2019-06-27T01:02:43.895Z,72.89
2019-06-27T01:05:12.815Z,72.30
2019-06-27T01:07:42.459Z,72.97
2019-06-27T01:10:11.341Z,72.84
2019-06-27T01:12:40.201Z,73.05
2019-06-27T01:15:09.178Z,73.09
2019-06-27T01:17:38.116Z,73.07
2019-06-27T01:20:06.985Z,73.65
2019-06-27T01:22:35.837Z,72.84
2019-06-27T01:25:05.432Z,73.08
2019-06-27T01:27:34.307Z,72.84
2019-06-27T01:30:03.179Z,72.57
2019-06-27T01:32:33.278Z,73.03
2019-06-27T01:35:04.379Z,72.15
2019-06-27T01:37:30.982Z,72.68
2019-06-27T01:39:59.817Z,73.29
2019-06-27T01:42:28.673Z,73.73
2019-06-27T01:45:01.083Z,72.69
2019-06-27T01:47:29.917Z,72.68
2019-06-27T01:49:59.425Z,73.07
2019-06-27T01:52:28.251Z,73.35
2019-06-27T01:54:57.230Z,72.87
2019-06-27T01:57:26.112Z,72.39
2019-06-27T01:59:54.947Z,73.22
2019-06-27T02:02:23.812Z,72.82
2019-06-27T02:04:52.651Z,73.06
2019-06-27T02:07:21.629Z,73.15
2019-06-27T02:09:51.045Z,72.79
2019-06-27T02:12:19.986Z,73.17
2019-06-27T02:14:48.784Z,73.40
2019-06-27T02:17:18.551Z,73.41
2019-06-27T02:19:47.428Z,72.87
2019-06-27T02:22:16.278Z,72.79
2019-06-27T02:24:46.211Z,72.69
2019-06-27T02:27:16.190Z,73.10
2019-06-27T02:29:45.106Z,73.36
2019-06-27T02:32:14.082Z,72.73
2019-06-27T02:34:44.000Z,72.47
2019-06-27T02:37:13.117Z,72.39
2019-06-27T02:39:41.962Z,72.43
2019-06-27T02:42:10.828Z,72.12
2019-06-27T02:44:39.676Z,72.71
2019-06-27T02:47:08.544Z,72.57
2019-06-27T02:49:37.394Z,72.55
2019-06-27T02:52:06.776Z,71.56
2019-06-27T02:54:35.894Z,72.09
2019-06-27T02:57:05.580Z,71.47
2019-06-27T02:59:35.756Z,71.66
2019-06-27T03:02:04.615Z,71.25
2019-06-27T03:04:33.442Z,71.43
2019-06-27T03:07:02.314Z,71.78
2019-06-27T03:09:31.168Z,71.94
2019-06-27T03:12:01.026Z,71.93
2019-06-27T03:14:29.597Z,72.33
2019-06-27T03:16:58.430Z,71.55
2019-06-27T03:19:27.264Z,72.12
2019-06-27T03:21:56.087Z,72.12
2019-06-27T03:24:26.231Z,71.71
2019-06-27T03:26:56.165Z,71.85
2019-06-27T03:29:24.991Z,71.72
2019-06-27T03:31:53.902Z,71.61
2019-06-27T03:34:24.686Z,72.41
2019-06-27T03:36:53.993Z,71.89
2019-06-27T03:39:24.727Z,71.68
2019-06-27T03:41:53.602Z,72.03
2019-06-27T03:44:23.307Z,71.65
2019-06-27T03:46:52.791Z,71.90
2019-06-27T03:49:21.652Z,71.71
2019-06-27T03:51:50.498Z,71.93
2019-06-27T03:54:19.373Z,71.41
2019-06-27T03:56:48.203Z,71.53
2019-06-27T03:59:17.989Z,70.98
2019-06-27T04:01:46.820Z,71.01
2019-06-27T04:04:15.639Z,70.77
2019-06-27T04:06:45.064Z,71.02
2019-06-27T04:09:13.962Z,71.42
2019-06-27T04:11:42.815Z,70.42
2019-06-27T04:14:11.691Z,70.59
2019-06-27T04:16:41.069Z,70.71
2019-06-27T04:19:11.220Z,71.28
2019-06-27T04:21:41.452Z,71.12
2019-06-27T04:24:10.364Z,71.32
2019-06-27T04:26:39.259Z,70.64
2019-06-27T04:29:08.106Z,70.68
2019-06-27T04:31:36.988Z,70.48
2019-06-27T04:34:05.840Z,70.74
2019-06-27T04:36:34.711Z,71.03
2019-06-27T04:39:03.720Z,70.17
2019-06-27T04:41:32.653Z,70.05
2019-06-27T04:44:01.517Z,69.68
2019-06-27T04:46:30.404Z,69.18
2019-06-27T04:48:59.285Z,68.53
2019-06-27T04:51:28.972Z,68.87
2019-06-27T04:53:57.814Z,68.03
2019-06-27T04:56:26.657Z,67.86
2019-06-27T04:58:56.812Z,67.89
2019-06-27T05:01:25.691Z,66.26
2019-06-27T05:03:54.532Z,63.62
2019-06-27T05:06:23.964Z,62.05
2019-06-27T05:08:53.456Z,61.47
2019-06-27T05:11:23.408Z,61.97
2019-06-27T05:13:52.372Z,60.99
2019-06-27T05:16:21.235Z,61.62
2019-06-27T05:18:50.868Z,59.63
2019-06-27T05:21:19.779Z,58.69
2019-06-27T05:23:48.616Z,57.12
2019-06-27T05:26:18.520Z,52.28
2019-06-27T05:28:47.367Z,43.42
2019-06-27T05:31:16.209Z,41.70
2019-06-27T05:33:45.059Z,39.72
2019-06-27T05:36:13.904Z,37.57
2019-06-27T05:38:43.318Z,33.34
2019-06-27T05:41:13.476Z,31.41
2019-06-27T05:43:42.328Z,33.11
2019-06-27T05:46:11.200Z,35.28
2019-06-27T05:48:40.061Z,34.85
2019-06-27T05:51:08.921Z,35.25
2019-06-27T05:53:38.323Z,34.71
2019-06-27T05:56:07.175Z,32.28
2019-06-27T05:58:36.013Z,32.80
2019-06-27T06:01:04.891Z,30.29
2019-06-27T06:03:33.777Z,30.32
2019-06-27T06:06:02.633Z,29.37
2019-06-27T06:08:31.471Z,28.63
2019-06-27T06:11:01.021Z,26.57
2019-06-27T06:13:29.955Z,28.87
2019-06-27T06:16:01.065Z,26.69
2019-06-27T06:18:28.243Z,27.73
2019-06-27T06:20:57.065Z,27.89
2019-06-27T06:23:27.359Z,26.22
2019-06-27T06:25:57.136Z,25.92
2019-06-27T06:28:25.994Z,25.08
2019-06-27T06:30:54.837Z,26.44
2019-06-27T06:33:23.702Z,25.79
2019-06-27T06:35:52.668Z,26.09
2019-06-27T06:38:22.096Z,27.19
2019-06-27T06:40:51.579Z,28.39
2019-06-27T06:43:20.552Z,29.82
2019-06-27T06:45:49.449Z,31.26
2019-06-27T06:48:18.289Z,31.72
2019-06-27T06:50:47.636Z,32.64
2019-06-27T06:53:17.741Z,33.49
2019-06-27T06:55:46.584Z,35.64
2019-06-27T06:58:15.466Z,35.32
2019-06-27T07:01:00.426Z,35.32
2019-06-27T07:03:14.095Z,35.55
2019-06-27T07:05:44.167Z,36.85
2019-06-27T07:08:13.116Z,37.93
2019-06-27T07:10:42.777Z,38.45
2019-06-27T07:13:12.112Z,39.70
2019-06-27T07:15:42.119Z,38.65
2019-06-27T07:18:11.133Z,39.38
2019-06-27T07:20:41.237Z,40.22
2019-06-27T07:23:10.285Z,40.75
2019-06-27T07:25:39.135Z,41.45
2019-06-27T07:28:08.025Z,42.52
2019-06-27T07:30:36.871Z,43.10
2019-06-27T07:33:05.752Z,42.59
2019-06-27T07:35:35.278Z,42.77
2019-06-27T07:38:04.119Z,43.08
2019-06-27T07:40:32.981Z,42.76
2019-06-27T07:43:03.049Z,43.01
2019-06-27T07:45:32.918Z,42.05
2019-06-27T07:48:01.762Z,42.41
2019-06-27T07:50:31.735Z,42.90
2019-06-27T07:53:00.569Z,42.73
2019-06-27T07:55:30.053Z,42.61
2019-06-27T07:57:58.873Z,41.89
2019-06-27T08:00:29.520Z,42.42
2019-06-27T08:02:58.339Z,43.22
2019-06-27T08:05:27.202Z,42.88
2019-06-27T08:07:56.040Z,42.36
2019-06-27T08:10:24.927Z,41.58
2019-06-27T08:12:54.336Z,41.29
2019-06-27T08:15:23.236Z,41.98
2019-06-27T08:17:52.080Z,41.51
2019-06-27T08:20:21.491Z,41.26
2019-06-27T08:22:50.359Z,41.57
2019-06-27T08:25:19.290Z,41.03
2019-06-27T08:27:48.142Z,41.40
2019-06-27T08:30:17.064Z,41.59
2019-06-27T08:32:45.901Z,42.07
2019-06-27T08:35:14.782Z,41.46
2019-06-27T08:37:44.335Z,40.68
2019-06-27T08:40:13.917Z,39.59
2019-06-27T08:42:42.807Z,40.48
2019-06-27T08:45:11.675Z,40.83
2019-06-27T08:47:41.864Z,40.57
2019-06-27T08:50:10.757Z,40.48
2019-06-27T08:52:39.666Z,39.05
2019-06-27T08:55:08.504Z,39.60
2019-06-27T08:57:37.471Z,39.19
2019-06-27T09:00:06.385Z,39.95
2019-06-27T09:02:35.192Z,39.80
2019-06-27T09:05:04.763Z,39.69
2019-06-27T09:07:33.646Z,40.69
2019-06-27T09:10:02.502Z,39.30
2019-06-27T09:12:31.510Z,39.67
2019-06-27T09:15:00.349Z,38.97
2019-06-27T09:17:29.186Z,39.36
2019-06-27T09:19:58.132Z,39.17
2019-06-27T09:22:27.003Z,38.59
2019-06-27T09:24:55.880Z,38.88
2019-06-27T09:27:24.765Z,39.13
2019-06-27T09:29:53.814Z,38.43
2019-06-27T09:32:26.015Z,38.31
2019-06-27T09:34:52.361Z,37.79
2019-06-27T09:37:21.204Z,37.56
2019-06-27T09:39:50.046Z,38.06
2019-06-27T09:42:19.731Z,38.39
2019-06-27T09:44:48.655Z,38.11
2019-06-27T09:47:18.845Z,38.24
2019-06-27T09:49:47.663Z,37.67
2019-06-27T09:52:16.523Z,38.79
2019-06-27T09:54:45.857Z,37.44
2019-06-27T09:57:15.149Z,37.39
2019-06-27T09:59:44.027Z,37.09
2019-06-27T10:02:13.472Z,37.91
2019-06-27T10:04:43.068Z,37.28
2019-06-27T10:07:11.928Z,36.60
2019-06-27T10:09:40.860Z,37.40
2019-06-27T10:12:09.697Z,37.19
2019-06-27T10:14:38.541Z,37.66
2019-06-27T10:17:07.398Z,38.25
2019-06-27T10:19:36.293Z,38.23
2019-06-27T10:22:05.191Z,37.77
2019-06-27T10:24:34.020Z,37.36
2019-06-27T10:27:02.856Z,37.14
2019-06-27T10:29:31.981Z,38.14
2019-06-27T10:32:00.833Z,37.42
2019-06-27T10:34:29.679Z,37.03
2019-06-27T10:36:58.669Z,37.35
2019-06-27T10:39:27.539Z,36.67
2019-06-27T10:41:56.395Z,37.30
2019-06-27T10:44:25.252Z,36.34
2019-06-27T10:46:54.767Z,36.70
2019-06-27T10:49:23.607Z,36.71
2019-06-27T10:51:52.467Z,35.04
2019-06-27T10:54:21.912Z,35.96
2019-06-27T10:56:51.464Z,36.01
2019-06-27T10:59:20.291Z,36.50
2019-06-27T11:01:49.162Z,36.22
2019-06-27T11:04:18.014Z,35.45
2019-06-27T11:06:46.861Z,35.40
2019-06-27T11:09:16.840Z,35.38
2019-06-27T11:11:46.708Z,34.89
2019-06-27T11:14:18.863Z,34.76
2019-06-27T11:16:44.448Z,36.04
2019-06-27T11:19:13.369Z,36.43
2019-06-27T11:21:42.210Z,36.44
2019-06-27T11:24:11.077Z,35.35
2019-06-27T11:26:39.916Z,36.06
2019-06-27T11:29:08.790Z,35.97
2019-06-27T11:31:38.973Z,35.10
2019-06-27T11:34:07.817Z,34.49
2019-06-27T11:36:36.699Z,35.30
2019-06-27T11:39:08.718Z,35.42
2019-06-27T11:41:37.576Z,34.98
2019-06-27T11:44:06.427Z,34.31
2019-06-27T11:46:35.271Z,34.39
2019-06-27T11:49:04.141Z,35.46
2019-06-27T11:51:32.993Z,34.89
2019-06-27T11:54:01.827Z,35.12
2019-06-27T11:56:32.186Z,35.06
2019-06-27T11:59:02.652Z,33.47
2019-06-27T12:01:31.889Z,35.46
2019-06-27T12:04:00.728Z,36.69
2019-06-27T12:06:31.784Z,36.05
2019-06-27T12:09:02.933Z,35.38
2019-06-27T12:11:31.778Z,35.79
2019-06-27T12:14:00.653Z,35.50
2019-06-27T12:16:29.600Z,34.84
2019-06-27T12:18:59.422Z,34.75
2019-06-27T12:21:29.351Z,35.13
2019-06-27T12:23:58.476Z,34.50
2019-06-27T12:26:27.399Z,35.27
2019-06-27T12:28:56.264Z,34.75
2019-06-27T12:31:25.199Z,34.98
2019-06-27T12:34:06.793Z,35.19
2019-06-27T12:36:26.690Z,35.00
2019-06-27T12:38:55.553Z,34.54
2019-06-27T12:41:24.391Z,35.58
2019-06-27T12:43:53.283Z,35.63
2019-06-27T12:46:22.724Z,35.72
2019-06-27T12:48:51.550Z,35.21
2019-06-27T12:51:20.433Z,35.27
2019-06-27T12:53:49.282Z,35.16
2019-06-27T12:56:20.141Z,35.52
2019-06-27T12:58:49.274Z,35.55
2019-06-27T13:01:18.244Z,35.10
2019-06-27T13:03:47.087Z,34.89
2019-06-27T13:06:16.502Z,35.25
2019-06-27T13:08:46.142Z,36.02
2019-06-27T13:11:15.024Z,34.58
2019-06-27T13:13:44.353Z,34.76
2019-06-27T13:16:13.250Z,34.07
2019-06-27T13:18:42.609Z,35.32
2019-06-27T13:21:11.479Z,35.59
2019-06-27T13:23:40.349Z,35.34
2019-06-27T13:26:09.212Z,34.99
2019-06-27T13:28:38.095Z,36.10
2019-06-27T13:31:06.968Z,35.16
2019-06-27T13:33:35.802Z,36.08
2019-06-27T13:36:04.667Z,36.06
2019-06-27T13:38:33.565Z,35.30
2019-06-27T13:41:02.696Z,35.42
2019-06-27T13:43:31.254Z,35.01
2019-06-27T13:46:00.143Z,35.53
2019-06-27T13:48:30.223Z,36.21
2019-06-27T13:50:59.726Z,36.40
2019-06-27T13:53:28.637Z,36.33
2019-06-27T13:55:57.759Z,35.69
2019-06-27T13:58:27.468Z,37.02
2019-06-27T14:00:56.831Z,36.00
2019-06-27T14:03:25.729Z,36.82
2019-06-27T14:05:54.587Z,36.16
2019-06-27T14:08:26.126Z,35.81
2019-06-27T14:10:52.344Z,37.06
2019-06-27T14:13:21.185Z,36.63
2019-06-27T14:15:50.098Z,36.77
2019-06-27T14:18:19.451Z,37.67
2019-06-27T14:20:49.025Z,38.02
2019-06-27T14:23:17.930Z,37.38
2019-06-27T14:25:46.765Z,37.22
2019-06-27T14:28:15.633Z,36.88
2019-06-27T14:30:44.472Z,37.67
2019-06-27T14:33:13.354Z,37.94
2019-06-27T14:35:42.239Z,37.35
2019-06-27T14:38:11.117Z,37.65
2019-06-27T14:40:40.004Z,37.58
2019-06-27T14:43:08.857Z,37.90
2019-06-27T14:45:37.796Z,37.46
2019-06-27T14:48:07.886Z,37.71
2019-06-27T14:50:36.950Z,38.09
2019-06-27T14:53:06.783Z,37.85
2019-06-27T14:55:36.342Z,37.86
2019-06-27T14:58:06.413Z,36.92
2019-06-27T15:00:35.964Z,37.78
2019-06-27T15:03:04.840Z,37.81
2019-06-27T15:05:33.861Z,37.36
2019-06-27T15:08:02.576Z,37.81
2019-06-27T15:10:31.616Z,37.50
2019-06-27T15:13:00.516Z,39.18
2019-06-27T15:15:30.261Z,38.58
2019-06-27T15:17:59.915Z,38.34
2019-06-27T15:20:28.777Z,39.52
2019-06-27T15:22:58.538Z,39.25
2019-06-27T15:25:28.513Z,38.67
2019-06-27T15:27:57.031Z,38.96
2019-06-27T15:30:26.259Z,38.55
2019-06-27T15:32:55.143Z,38.90
2019-06-27T15:35:26.698Z,38.90
2019-06-27T15:37:55.552Z,39.55
2019-06-27T15:40:24.449Z,39.86
2019-06-27T15:42:53.348Z,39.78
2019-06-27T15:45:22.204Z,40.25
2019-06-27T15:47:51.059Z,40.10
2019-06-27T15:50:19.941Z,40.47
2019-06-27T15:52:48.909Z,41.12
2019-06-27T15:55:17.773Z,41.56
2019-06-27T15:57:46.633Z,41.73
2019-06-27T16:00:16.167Z,42.17
2019-06-27T16:02:45.016Z,42.06
2019-06-27T16:05:14.052Z,42.76
2019-06-27T16:07:42.846Z,41.97
2019-06-27T16:10:11.793Z,42.33
2019-06-27T16:12:41.287Z,41.94
2019-06-27T16:15:10.233Z,42.76
2019-06-27T16:17:40.445Z,42.25
2019-06-27T16:20:10.518Z,43.24
2019-06-27T16:22:39.403Z,43.07
2019-06-27T16:25:08.331Z,43.40
2019-06-27T16:27:37.175Z,43.53
2019-06-27T16:30:07.295Z,43.14
2019-06-27T16:32:36.113Z,43.86
2019-06-27T16:35:05.031Z,44.51
2019-06-27T16:37:34.069Z,43.91
2019-06-27T16:40:02.937Z,43.81
2019-06-27T16:42:32.463Z,45.15
2019-06-27T16:45:01.367Z,45.09
2019-06-27T16:47:30.238Z,44.61
2019-06-27T16:50:00.480Z,44.43
2019-06-27T16:52:29.646Z,44.59
2019-06-27T16:54:58.565Z,45.26
2019-06-27T16:57:27.400Z,45.68
2019-06-27T16:59:56.236Z,44.90
2019-06-27T17:02:25.086Z,45.00
2019-06-27T17:04:53.911Z,46.03
2019-06-27T17:07:23.422Z,46.35
2019-06-27T17:09:52.920Z,46.66
2019-06-27T17:12:21.960Z,47.19
2019-06-27T17:14:52.031Z,47.33
2019-06-27T17:17:20.868Z,46.79
2019-06-27T17:19:49.753Z,47.91
2019-06-27T17:22:19.524Z,48.04
2019-06-27T17:24:48.512Z,47.94
2019-06-27T17:27:17.384Z,47.59
2019-06-27T17:29:46.205Z,47.94
2019-06-27T17:32:15.117Z,49.00
2019-06-27T17:34:44.105Z,48.80
2019-06-27T17:37:13.020Z,49.29
2019-06-27T17:39:41.926Z,48.75
2019-06-27T17:42:10.772Z,48.21
2019-06-27T17:44:40.319Z,48.19
2019-06-27T17:47:09.192Z,48.42
2019-06-27T17:49:38.044Z,48.92
2019-06-27T17:52:07.076Z,48.83
2019-06-27T17:54:36.570Z,48.98
2019-06-27T17:57:05.434Z,49.14
2019-06-27T17:59:34.439Z,48.57
2019-06-27T18:02:03.405Z,48.58
2019-06-27T18:04:32.297Z,49.15
2019-06-27T18:07:13.565Z,50.02
2019-06-27T18:09:30.199Z,49.73
2019-06-27T18:11:59.063Z,50.03
2019-06-27T18:14:29.101Z,50.24
2019-06-27T18:17:00.262Z,50.11
2019-06-27T18:19:29.844Z,50.15
2019-06-27T18:22:00.857Z,51.09
2019-06-27T18:24:31.194Z,50.42
2019-06-27T18:27:00.872Z,51.45
2019-06-27T18:29:30.245Z,50.75
2019-06-27T18:31:59.120Z,51.16
2019-06-27T18:34:27.972Z,51.98
2019-06-27T18:36:58.461Z,51.17
2019-06-27T18:39:28.448Z,51.92
2019-06-27T18:41:57.336Z,51.82
2019-06-27T18:44:26.188Z,51.59
2019-06-27T18:46:55.948Z,51.55
2019-06-27T18:49:25.219Z,51.60
2019-06-27T18:51:54.069Z,51.81
2019-06-27T18:54:23.212Z,52.49
2019-06-27T18:56:52.175Z,53.34
2019-06-27T18:59:21.020Z,53.58
2019-06-27T19:01:49.859Z,52.94
2019-06-27T19:04:19.660Z,53.49
2019-06-27T19:06:48.558Z,53.42
2019-06-27T19:09:18.425Z,53.81
2019-06-27T19:11:47.439Z,53.58
2019-06-27T19:14:16.320Z,54.23
2019-06-27T19:16:48.684Z,54.02
2019-06-27T19:19:20.159Z,54.85
2019-06-27T19:22:26.007Z,53.88
2019-06-27T19:25:03.380Z,54.98
2019-06-27T19:27:32.378Z,54.98
2019-06-27T19:30:01.330Z,55.08
2019-06-27T19:32:30.402Z,55.70
2019-06-27T19:34:59.257Z,55.76
2019-06-27T19:37:28.221Z,56.02
2019-06-27T19:39:57.063Z,56.55
2019-06-27T19:42:25.957Z,57.31
2019-06-27T19:44:54.826Z,57.15
2019-06-27T19:47:24.011Z,57.36
2019-06-27T19:49:52.882Z,58.15
2019-06-27T19:52:21.712Z,57.72
2019-06-27T19:54:50.586Z,58.04
2019-06-27T19:57:21.303Z,58.78
2019-06-27T19:59:50.183Z,59.70
2019-06-27T20:02:19.024Z,58.94
2019-06-27T20:04:48.393Z,59.96
2019-06-27T20:07:17.248Z,59.26
2019-06-27T20:09:46.147Z,59.72
2019-06-27T20:12:15.083Z,60.11
2019-06-27T20:14:43.943Z,60.55
2019-06-27T20:17:13.030Z,60.57
2019-06-27T20:19:41.869Z,61.75
2019-06-27T20:22:12.972Z,62.34
2019-06-27T20:24:41.821Z,61.37
2019-06-27T20:27:10.662Z,62.12
2019-06-27T20:29:40.132Z,61.90
2019-06-27T20:32:10.002Z,62.07
2019-06-27T20:34:39.554Z,62.07
2019-06-27T20:37:07.773Z,61.94
2019-06-27T20:39:36.687Z,62.71
2019-06-27T20:42:05.547Z,62.67
2019-06-27T20:44:34.539Z,62.85
2019-06-27T20:47:04.669Z,62.96
2019-06-27T20:49:33.592Z,63.16
2019-06-27T20:52:02.405Z,63.45
2019-06-27T20:54:31.253Z,63.81
2019-06-27T20:57:00.128Z,63.73
2019-06-27T20:59:28.996Z,64.25
2019-06-27T21:01:57.979Z,64.19
2019-06-27T21:04:27.384Z,64.02
2019-06-27T21:06:56.314Z,64.25
2019-06-27T21:09:26.567Z,64.22
2019-06-27T21:11:55.433Z,64.42
2019-06-27T21:14:25.621Z,64.71
2019-06-27T21:16:54.437Z,64.50
2019-06-27T21:19:24.032Z,65.85
2019-06-27T21:21:53.402Z,65.66
2019-06-27T21:24:22.322Z,65.91
2019-06-27T21:26:51.369Z,65.75
2019-06-27T21:29:20.217Z,66.50
2019-06-27T21:31:49.117Z,65.83
2019-06-27T21:34:18.929Z,66.04
2019-06-27T21:36:48.429Z,66.74
2019-06-27T21:39:17.288Z,66.52
2019-06-27T21:41:46.153Z,65.70
2019-06-27T21:44:15.038Z,66.06
2019-06-27T21:46:43.981Z,66.66
2019-06-27T21:49:12.887Z,66.44
2019-06-27T21:51:41.760Z,66.31
2019-06-27T21:54:10.614Z,66.45
2019-06-27T21:56:39.439Z,67.45
2019-06-27T21:59:08.298Z,67.25
2019-06-27T22:01:37.277Z,67.47
2019-06-27T22:04:06.109Z,67.09
2019-06-27T22:06:34.953Z,66.71
2019-06-27T22:09:04.667Z,67.86
2019-06-27T22:11:33.501Z,67.45
2019-06-27T22:14:02.347Z,67.22
2019-06-27T22:16:31.217Z,67.60
2019-06-27T22:19:01.788Z,67.32
2019-06-27T22:21:30.746Z,67.73
2019-06-27T22:23:59.792Z,68.12
2019-06-27T22:26:28.740Z,68.50
2019-06-27T22:28:57.580Z,68.16
2019-06-27T22:31:26.472Z,68.30
2019-06-27T22:33:55.875Z,68.83
2019-06-27T22:36:27.107Z,68.20
2019-06-27T22:39:01.285Z,68.87
2019-06-27T22:41:36.137Z,68.16
2019-06-27T22:44:10.352Z,68.73
2019-06-27T22:46:45.777Z,68.52
2019-06-27T22:49:14.856Z,69.41
2019-06-27T22:51:49.028Z,69.22
2019-06-27T22:54:18.335Z,70.05
2019-06-27T22:56:47.200Z,70.27
2019-06-27T22:59:16.681Z,69.67
2019-06-27T23:01:45.660Z,69.82
2019-06-27T23:04:14.512Z,70.04
2019-06-27T23:06:43.961Z,70.00
2019-06-27T23:09:13.864Z,70.25
2019-06-27T23:11:42.753Z,70.26
2019-06-27T23:14:12.332Z,70.49
2019-06-27T23:16:42.027Z,70.61
2019-06-27T23:19:11.834Z,70.57
2019-06-27T23:21:40.616Z,70.58
2019-06-27T23:24:09.472Z,70.38
2019-06-27T23:26:38.307Z,70.71
2019-06-27T23:29:07.543Z,70.91
2019-06-27T23:31:36.426Z,70.92
2019-06-27T23:34:05.269Z,70.74
2019-06-27T23:36:34.151Z,70.75
2019-06-27T23:39:03.010Z,71.80
2019-06-27T23:41:31.924Z,71.73
2019-06-27T23:44:00.773Z,71.84
2019-06-27T23:46:35.002Z,72.72
2019-06-27T23:49:03.881Z,72.31
2019-06-27T23:51:32.738Z,72.36
2019-06-27T23:54:01.612Z,72.54
2019-06-27T23:56:30.508Z,72.71
2019-06-27T23:59:01.633Z,72.77
